Time;durP1;ratioP1;P1;durP2;ratioP2;P2;SDS_P1;SDS_P2;PMS_P1;PMS_P2;Temp;Humidity;BMP_temperature;BMP_pressure;BME280_temperature;BME280_humidity;BME280_pressure;Samples;Min_cycle;Max_cycle;Signal;HPM_P1;HPM_P2
2022/12/28 00:01:35;;;;;;;63.20;19.00;;;5.90;58.60;;;;;;5070037;28;20451;-86
2022/12/28 00:04:05;;;;;;;56.07;17.90;;;5.90;59.00;;;;;;5064524;28;20452;-87
2022/12/28 00:06:33;;;;;;;64.60;17.37;;;5.90;59.40;;;;;;5083909;28;21220;-87
2022/12/28 00:09:01;;;;;;;30.33;13.03;;;6.10;58.90;;;;;;5068130;28;20463;-87
2022/12/28 00:11:28;;;;;;;74.33;20.70;;;6.20;58.40;;;;;;5091907;28;20448;-87
2022/12/28 00:13:56;;;;;;;91.23;14.67;;;6.20;58.20;;;;;;5094113;28;20447;-87
2022/12/28 00:16:27;;;;;;;101.03;15.83;;;5.80;58.00;;;;;;5078713;28;21007;-87
2022/12/28 00:18:55;;;;;;;26.57;14.17;;;5.10;59.70;;;;;;5086183;28;20455;-85
2022/12/28 00:21:23;;;;;;;27.63;15.07;;;5.10;61.20;;;;;;5087772;28;20451;-87
2022/12/28 00:23:51;;;;;;;32.50;15.30;;;5.40;59.90;;;;;;5091997;28;20447;-86
2022/12/28 00:26:19;;;;;;;28.17;14.53;;;5.50;59.60;;;;;;5073248;28;20501;-87
2022/12/28 00:28:46;;;;;;;35.13;17.90;;;5.50;59.20;;;;;;5080035;28;20447;-87
2022/12/28 00:31:13;;;;;;;30.17;16.97;;;5.40;60.10;;;;;;5071481;28;20443;-87
2022/12/28 00:33:40;;;;;;;23.90;14.20;;;5.50;60.50;;;;;;5093839;28;20890;-87
2022/12/28 00:36:10;;;;;;;38.43;21.47;;;5.70;60.00;;;;;;5060785;28;21000;-87
2022/12/28 00:38:39;;;;;;;27.10;16.27;;;5.90;59.20;;;;;;5086466;28;20479;-87
2022/12/28 00:41:07;;;;;;;30.50;18.03;;;5.40;59.40;;;;;;5067075;28;20490;-88
2022/12/28 00:43:34;;;;;;;27.10;13.17;;;5.30;60.40;;;;;;5079038;28;20447;-88
2022/12/28 00:46:03;;;;;;;23.70;14.30;;;5.20;60.60;;;;;;5068964;28;20562;-87
2022/12/28 00:48:30;;;;;;;23.43;14.83;;;5.50;60.70;;;;;;5068865;28;20993;-87
2022/12/28 00:51:02;;;;;;;21.77;14.67;;;5.70;59.80;;;;;;5076581;28;20467;-87
2022/12/28 00:53:29;;;;;;;22.73;10.63;;;5.70;59.70;;;;;;5092028;28;20447;-87
2022/12/28 00:56:04;;;;;;;16.00;10.47;;;5.80;59.80;;;;;;5066078;28;20995;-89
2022/12/28 00:58:31;;;;;;;21.00;10.83;;;6.00;59.50;;;;;;5079571;28;20823;-87
2022/12/28 01:00:58;;;;;;;79.57;14.30;;;6.10;59.20;;;;;;5090504;28;20478;-87
2022/12/28 01:03:25;;;;;;;40.47;11.73;;;6.10;59.50;;;;;;5079777;28;20454;-87
2022/12/28 01:05:52;;;;;;;16.03;10.07;;;6.10;58.60;;;;;;5065283;28;20834;-87
2022/12/28 01:08:19;;;;;;;21.27;10.20;;;5.90;59.10;;;;;;5098868;28;20462;-87
2022/12/28 01:10:46;;;;;;;20.80;12.10;;;5.80;59.70;;;;;;5066957;28;20454;-88
2022/12/28 01:13:14;;;;;;;22.67;11.30;;;6.00;59.40;;;;;;5080549;28;20443;-88
2022/12/28 01:15:41;;;;;;;21.43;13.07;;;6.10;58.80;;;;;;5078861;28;20468;-87
2022/12/28 01:18:08;;;;;;;22.33;11.13;;;6.20;58.30;;;;;;5087678;28;21014;-88
2022/12/28 01:20:38;;;;;;;21.27;11.50;;;6.20;57.80;;;;;;5086045;28;20497;-87
2022/12/28 01:23:05;;;;;;;16.57;10.60;;;6.20;58.00;;;;;;5098743;28;20444;-87
2022/12/28 01:25:32;;;;;;;16.87;10.10;;;6.10;58.50;;;;;;5073709;28;20465;-88
2022/12/28 01:27:59;;;;;;;19.23;9.37;;;6.10;58.90;;;;;;5067357;28;20536;-87
2022/12/28 01:30:29;;;;;;;14.70;8.90;;;6.10;58.90;;;;;;5086371;28;20505;-87
2022/12/28 01:32:58;;;;;;;16.27;10.13;;;6.20;58.70;;;;;;5071771;28;20439;-87
2022/12/28 01:35:25;;;;;;;18.03;9.10;;;6.30;58.10;;;;;;5098049;28;21005;-89
2022/12/28 01:37:56;;;;;;;18.33;10.03;;;6.20;58.30;;;;;;5064043;28;20455;-88
2022/12/28 01:40:23;;;;;;;15.83;8.90;;;6.20;58.40;;;;;;5075178;28;20983;-87
2022/12/28 01:42:50;;;;;;;16.97;10.67;;;6.10;58.80;;;;;;5076597;28;20448;-89
2022/12/28 01:45:20;;;;;;;17.27;9.90;;;6.20;58.40;;;;;;5080164;28;20462;-88
2022/12/28 01:47:53;;;;;;;19.57;10.10;;;6.30;58.50;;;;;;5064894;28;20447;-87
2022/12/28 01:50:26;;;;;;;15.20;8.30;;;6.30;58.40;;;;;;5072434;28;20462;-87
2022/12/28 01:52:55;;;;;;;16.50;10.30;;;6.40;58.10;;;;;;5096539;28;20444;-87
2022/12/28 01:55:26;;;;;;;15.73;10.40;;;6.40;57.90;;;;;;5081454;28;20542;-88
2022/12/28 01:57:58;;;;;;;64.97;17.93;;;6.40;58.30;;;;;;5069128;28;20543;-87
2022/12/28 02:00:25;;;;;;;18.87;10.80;;;6.20;58.10;;;;;;5066762;28;20487;-87
2022/12/28 02:02:57;;;;;;;18.20;10.13;;;6.10;59.10;;;;;;5078213;28;20454;-87
2022/12/28 02:05:29;;;;;;;18.33;10.03;;;6.20;59.00;;;;;;5098533;28;20551;-87
2022/12/28 02:08:02;;;;;;;19.40;11.17;;;6.20;58.60;;;;;;5071699;28;20450;-87
2022/12/28 02:10:32;;;;;;;16.60;10.83;;;6.10;59.30;;;;;;5100063;28;20485;-88
2022/12/28 02:13:00;;;;;;;12.63;9.93;;;6.10;58.70;;;;;;5068318;28;20455;-88
2022/12/28 02:15:27;;;;;;;17.23;10.60;;;6.10;59.10;;;;;;5067046;28;20464;-87
2022/12/28 02:17:57;;;;;;;19.63;10.87;;;6.10;58.90;;;;;;5069806;28;20446;-89
2022/12/28 02:20:30;;;;;;;16.70;10.53;;;6.10;59.40;;;;;;5071762;28;20450;-88
2022/12/28 02:23:42;;;;;;;19.17;10.20;;;6.20;58.80;;;;;;5084811;28;20454;-87
2022/12/28 02:26:43;;;;;;;18.43;11.30;;;6.10;59.50;;;;;;5069605;28;20894;-87
2022/12/28 02:29:44;;;;;;;15.77;8.60;;;6.20;59.70;;;;;;5068391;28;20855;-87
2022/12/28 02:32:21;;;;;;;12.40;5.23;;;6.40;59.10;;;;;;5075198;28;20439;-89
2022/12/28 02:34:56;;;;;;;8.00;5.20;;;6.50;59.20;;;;;;5086094;28;20477;-87
2022/12/28 02:37:27;;;;;;;4.37;3.80;;;6.40;59.70;;;;;;5087247;28;20449;-87
2022/12/28 02:39:59;;;;;;;5.43;4.83;;;6.40;59.90;;;;;;5084459;28;20530;-88
2022/12/28 02:42:29;;;;;;;6.47;4.43;;;6.50;60.70;;;;;;5067372;28;20537;-87
2022/12/28 02:50:36;;;;;;;7.83;4.10;;;6.70;60.50;;;;;;5066371;28;20832;-88
2022/12/28 02:53:25;;;;;;;10.17;7.60;;;6.70;61.20;;;;;;5091900;27;20447;-87
2022/12/28 02:56:08;;;;;;;14.50;8.20;;;6.80;60.60;;;;;;5085277;28;20987;-89
2022/12/28 02:59:03;;;;;;;11.93;7.53;;;6.60;60.40;;;;;;5086028;28;20991;-87
2022/12/28 03:01:47;;;;;;;9.27;5.33;;;6.60;60.60;;;;;;5064994;28;20444;-88
2022/12/28 03:04:20;;;;;;;10.13;6.20;;;6.70;61.20;;;;;;5085925;28;20450;-86
2022/12/28 03:09:49;;;;;;;7.77;5.70;;;6.50;60.60;;;;;;5088588;28;20447;-87
2022/12/28 03:12:22;;;;;;;9.23;6.20;;;6.60;60.70;;;;;;5101458;28;20476;-87
2022/12/28 03:14:53;;;;;;;9.40;7.10;;;6.70;59.70;;;;;;5096852;28;20439;-88
2022/12/28 03:31:31;;;;;;;8.90;6.10;;;6.20;61.70;;;;;;5101658;28;20530;-87
2022/12/28 03:34:06;;;;;;;8.20;6.30;;;6.20;62.20;;;;;;5065205;28;20471;-87
2022/12/28 03:36:47;;;;;;;12.57;8.50;;;6.40;61.60;;;;;;5070032;28;20467;-88
2022/12/28 03:39:25;;;;;;;12.03;7.10;;;6.60;60.60;;;;;;5096486;28;20438;-87
2022/12/28 03:44:50;;;;;;;6.43;5.00;;;6.30;61.20;;;;;;5066266;28;20433;-87
2022/12/28 03:47:21;;;;;;;8.70;5.27;;;6.40;61.30;;;;;;5083029;28;20473;-86
2022/12/28 03:49:49;;;;;;;10.73;5.40;;;6.50;61.80;;;;;;5081878;28;20948;-88
2022/12/28 03:52:17;;;;;;;7.40;5.83;;;6.70;61.40;;;;;;5081567;28;20447;-87
2022/12/28 03:54:45;;;;;;;8.40;5.73;;;6.80;61.30;;;;;;5078426;28;20452;-87
2022/12/28 03:57:15;;;;;;;10.00;5.80;;;6.90;61.30;;;;;;5077408;28;20478;-87
2022/12/28 03:59:44;;;;;;;7.50;5.83;;;7.00;60.70;;;;;;5070702;28;20451;-87
2022/12/28 04:02:11;;;;;;;9.03;6.17;;;6.90;60.80;;;;;;5072806;28;20455;-88
2022/12/28 04:04:39;;;;;;;12.07;5.90;;;6.90;60.80;;;;;;5066741;28;20497;-87
2022/12/28 04:07:07;;;;;;;7.23;5.23;;;6.90;60.40;;;;;;5076624;28;20464;-87
2022/12/28 04:09:34;;;;;;;7.30;5.30;;;6.90;60.90;;;;;;5064038;28;20525;-87
2022/12/28 04:12:01;;;;;;;8.50;5.30;;;6.90;61.00;;;;;;5069589;28;20514;-88
2022/12/28 04:14:48;;;;;;;10.23;5.43;;;6.70;61.60;;;;;;5100100;28;20435;-86
2022/12/28 04:17:15;;;;;;;15.93;5.73;;;6.80;62.30;;;;;;5065670;28;20464;-88
2022/12/28 04:19:42;;;;;;;16.23;8.00;;;6.90;62.30;;;;;;5063573;28;21042;-87
2022/12/28 04:22:11;;;;;;;13.67;7.77;;;6.80;62.60;;;;;;5070368;28;21004;-89
2022/12/28 04:24:38;;;;;;;14.70;9.57;;;6.90;62.80;;;;;;5090250;28;20573;-87
2022/12/28 04:27:05;;;;;;;21.17;12.50;;;6.90;62.80;;;;;;5063123;28;20592;-87
2022/12/28 04:29:32;;;;;;;32.77;17.20;;;7.10;62.60;;;;;;5080195;28;20538;-87
2022/12/28 04:32:02;;;;;;;48.83;19.97;;;7.20;62.30;;;;;;5094649;28;20559;-87
2022/12/28 04:34:29;;;;;;;21.53;12.07;;;7.30;61.60;;;;;;5077664;28;20919;-87
2022/12/28 04:37:03;;;;;;;14.80;8.93;;;7.40;61.00;;;;;;5084454;28;20842;-87
2022/12/28 04:39:32;;;;;;;11.27;6.67;;;7.20;61.20;;;;;;5061982;28;20500;-87
2022/12/28 04:41:59;;;;;;;7.30;5.50;;;7.10;61.60;;;;;;5079741;28;20432;-87
2022/12/28 04:44:26;;;;;;;7.80;5.10;;;7.10;61.90;;;;;;5095747;28;20451;-87
2022/12/28 04:46:53;;;;;;;8.73;6.33;;;7.10;62.20;;;;;;5075624;28;20459;-87
2022/12/28 04:49:19;;;;;;;6.43;5.67;;;7.10;62.40;;;;;;5064004;28;20450;-85
2022/12/28 04:51:46;;;;;;;31.50;17.83;;;7.10;62.30;;;;;;5078133;28;20479;-88
2022/12/28 04:54:13;;;;;;;33.53;17.80;;;7.10;62.50;;;;;;5081243;28;20461;-87
2022/12/28 04:56:42;;;;;;;11.70;5.90;;;7.10;62.50;;;;;;5095798;28;20544;-87
2022/12/28 04:59:09;;;;;;;5.20;4.23;;;7.10;62.70;;;;;;5066226;28;20862;-88
2022/12/28 05:01:36;;;;;;;6.40;4.20;;;7.30;62.60;;;;;;5095790;28;20446;-87
2022/12/28 05:04:03;;;;;;;7.37;4.67;;;7.40;62.30;;;;;;5069762;28;20557;-87
2022/12/28 05:06:31;;;;;;;4.23;3.83;;;7.40;61.90;;;;;;5065317;28;20451;-87
2022/12/28 05:08:58;;;;;;;5.93;3.93;;;7.50;61.60;;;;;;5090330;28;20456;-87
2022/12/28 05:11:27;;;;;;;6.57;3.70;;;7.50;62.30;;;;;;5086825;28;20477;-87
2022/12/28 05:13:56;;;;;;;4.10;3.67;;;7.60;61.40;;;;;;5080071;28;20451;-87
2022/12/28 05:16:25;;;;;;;6.43;3.70;;;7.60;61.10;;;;;;5073996;28;20474;-85
2022/12/28 05:18:52;;;;;;;7.37;4.40;;;7.70;61.40;;;;;;5076595;28;20456;-87
2022/12/28 05:21:21;;;;;;;9.27;5.37;;;7.50;62.10;;;;;;5063794;28;20447;-87
2022/12/28 05:23:49;;;;;;;7.30;4.40;;;7.60;61.90;;;;;;5090351;28;20452;-87
2022/12/28 05:26:17;;;;;;;6.73;4.60;;;7.50;62.20;;;;;;5087130;28;20473;-87
2022/12/28 05:28:44;;;;;;;12.07;4.60;;;7.50;62.20;;;;;;5066974;28;20450;-87
2022/12/28 05:31:15;;;;;;;8.20;5.47;;;7.30;62.90;;;;;;5061951;28;20491;-86
2022/12/28 05:33:42;;;;;;;6.20;4.00;;;7.20;63.50;;;;;;5078880;28;20455;-87
2022/12/28 05:36:11;;;;;;;5.83;4.07;;;7.30;63.00;;;;;;5061995;28;20516;-87
2022/12/28 05:38:38;;;;;;;4.60;3.33;;;7.50;62.40;;;;;;5090454;28;20440;-88
2022/12/28 05:41:06;;;;;;;5.90;3.77;;;7.50;62.10;;;;;;5089349;28;20444;-87
2022/12/28 05:43:34;;;;;;;4.10;3.70;;;7.50;62.40;;;;;;5063182;28;20448;-87
2022/12/28 05:46:02;;;;;;;3.30;2.53;;;7.60;62.20;;;;;;5079566;28;20865;-87
2022/12/28 05:48:36;;;;;;;4.00;3.27;;;7.60;62.00;;;;;;5066437;28;20455;-84
2022/12/28 05:51:05;;;;;;;6.57;3.40;;;7.80;61.60;;;;;;5083525;28;20464;-87
2022/12/28 05:53:33;;;;;;;5.40;3.87;;;8.00;61.00;;;;;;5077889;28;20454;-88
2022/12/28 05:56:02;;;;;;;4.73;3.10;;;8.00;60.50;;;;;;5076637;28;20538;-87
2022/12/28 05:58:29;;;;;;;4.03;3.63;;;8.00;60.50;;;;;;5074988;28;20476;-87
2022/12/28 06:01:04;;;;;;;4.87;3.90;;;7.80;61.10;;;;;;5060828;28;20944;-88
2022/12/28 06:03:31;;;;;;;5.00;3.97;;;7.90;60.90;;;;;;5078900;28;20515;-87
2022/12/28 06:06:03;;;;;;;4.03;2.67;;;7.90;60.60;;;;;;5081223;28;20478;-87
2022/12/28 06:08:30;;;;;;;7.90;5.00;;;8.00;60.30;;;;;;5078402;28;20834;-87
2022/12/28 06:11:00;;;;;;;7.20;5.00;;;8.00;59.90;;;;;;5085236;28;20478;-88
2022/12/28 06:13:27;;;;;;;5.50;3.93;;;8.00;60.00;;;;;;5093709;28;20485;-88
2022/12/28 06:15:54;;;;;;;4.50;3.10;;;8.00;60.00;;;;;;5064802;28;20456;-88
2022/12/28 06:18:21;;;;;;;4.10;3.50;;;7.60;60.70;;;;;;5096401;28;20455;-87
2022/12/28 06:20:48;;;;;;;7.47;3.30;;;7.50;61.90;;;;;;5094284;28;20436;-88
2022/12/28 06:23:16;;;;;;;10.20;2.97;;;7.40;62.40;;;;;;5068131;28;20462;-88
2022/12/28 06:25:43;;;;;;;4.33;3.07;;;7.40;62.30;;;;;;5083424;28;20535;-88
2022/12/28 06:28:10;;;;;;;3.00;2.63;;;7.40;62.30;;;;;;5074704;28;20932;-86
2022/12/28 06:30:37;;;;;;;3.43;2.93;;;7.50;62.20;;;;;;5067613;28;20811;-87
2022/12/28 06:33:04;;;;;;;5.07;3.30;;;7.60;62.00;;;;;;5080324;28;20448;-88
2022/12/28 06:35:31;;;;;;;2.90;2.53;;;7.80;61.40;;;;;;5071116;28;20538;-85
2022/12/28 06:37:58;;;;;;;4.23;2.80;;;8.00;60.80;;;;;;5099133;28;20458;-87
2022/12/28 06:40:26;;;;;;;5.20;2.67;;;8.10;60.50;;;;;;5100403;28;20439;-86
2022/12/28 06:42:55;;;;;;;5.10;3.90;;;8.30;60.10;;;;;;5102401;28;20428;-87
2022/12/28 06:45:22;;;;;;;3.50;3.20;;;8.30;59.50;;;;;;5082727;28;20533;-88
2022/12/28 06:47:49;;;;;;;7.43;5.20;;;8.40;59.50;;;;;;5094812;28;20443;-87
2022/12/28 06:50:16;;;;;;;6.27;5.30;;;8.30;59.30;;;;;;5080016;28;20959;-87
2022/12/28 06:52:43;;;;;;;7.47;4.20;;;8.00;60.20;;;;;;5086750;28;20467;-87
2022/12/28 06:55:10;;;;;;;11.37;7.50;;;8.10;60.00;;;;;;5069426;28;20466;-87
2022/12/28 06:57:39;;;;;;;6.33;5.73;;;7.90;60.60;;;;;;5070425;28;20526;-86
2022/12/28 07:00:07;;;;;;;13.73;4.40;;;7.80;61.10;;;;;;5084106;28;20903;-87
2022/12/28 07:02:34;;;;;;;4.30;3.53;;;7.70;61.30;;;;;;5082147;28;20444;-87
2022/12/28 07:05:01;;;;;;;4.00;3.60;;;7.80;61.90;;;;;;5069817;28;20454;-89
2022/12/28 07:07:28;;;;;;;5.23;3.90;;;7.70;61.90;;;;;;5095591;28;20440;-89
2022/12/28 07:09:55;;;;;;;4.33;3.07;;;8.00;61.20;;;;;;5085740;28;21029;-88
2022/12/28 07:12:22;;;;;;;9.57;3.77;;;7.90;61.10;;;;;;5063999;28;20473;-86
2022/12/28 07:14:50;;;;;;;7.90;4.20;;;7.80;61.70;;;;;;5069017;28;20448;-86
2022/12/28 07:17:17;;;;;;;4.70;3.27;;;8.00;61.40;;;;;;5062263;28;20991;-88
2022/12/28 07:19:44;;;;;;;4.47;3.13;;;8.10;61.00;;;;;;5067824;28;21720;-88
2022/12/28 07:22:11;;;;;;;5.03;3.30;;;8.30;60.40;;;;;;5068430;28;20826;-88
2022/12/28 07:24:38;;;;;;;4.43;4.03;;;8.30;60.30;;;;;;5090889;28;20440;-88
2022/12/28 07:27:05;;;;;;;9.10;5.50;;;8.10;60.60;;;;;;5078981;28;20556;-88
2022/12/28 07:29:32;;;;;;;7.77;2.70;;;8.30;61.20;;;;;;5067462;28;20822;-89
2022/12/28 07:32:00;;;;;;;3.70;3.23;;;8.20;61.20;;;;;;5068121;28;21096;-88
2022/12/28 07:34:27;;;;;;;5.93;3.60;;;8.10;62.10;;;;;;5063163;28;21310;-86
2022/12/28 07:36:54;;;;;;;25.77;13.67;;;8.20;62.20;;;;;;5079872;28;20459;-87
2022/12/28 07:39:21;;;;;;;34.97;17.77;;;8.30;61.70;;;;;;5067213;28;20451;-88
2022/12/28 07:41:48;;;;;;;17.30;8.53;;;8.40;61.70;;;;;;5085541;28;20511;-89
2022/12/28 07:44:21;;;;;;;5.30;4.57;;;8.60;60.90;;;;;;5079064;28;20975;-88
2022/12/28 07:46:48;;;;;;;5.33;4.20;;;8.60;60.20;;;;;;5072941;28;20456;-87
2022/12/28 07:49:16;;;;;;;5.80;3.90;;;8.70;60.70;;;;;;5077109;28;22527;-88
2022/12/28 07:51:43;;;;;;;3.97;3.50;;;8.80;60.20;;;;;;5082841;28;20476;-89
2022/12/28 07:54:10;;;;;;;4.47;3.20;;;8.80;59.90;;;;;;5080944;28;20447;-88
2022/12/28 07:56:37;;;;;;;8.90;3.50;;;8.90;59.80;;;;;;5065740;28;20462;-88
2022/12/28 07:59:06;;;;;;;3.50;2.87;;;9.00;60.20;;;;;;5078266;28;20804;-89
2022/12/28 08:01:35;;;;;;;9.27;7.00;;;9.10;59.60;;;;;;5064689;28;20448;-87
2022/12/28 08:04:03;;;;;;;7.20;4.90;;;9.10;59.40;;;;;;5075156;28;20467;-88
2022/12/28 08:06:34;;;;;;;5.00;3.37;;;9.00;59.70;;;;;;5075844;28;20998;-88
2022/12/28 08:09:02;;;;;;;7.47;4.17;;;9.10;59.60;;;;;;5096952;28;20449;-88
2022/12/28 08:11:31;;;;;;;3.40;2.67;;;9.10;59.50;;;;;;5064215;28;20513;-88
2022/12/28 08:13:59;;;;;;;7.60;4.10;;;9.20;59.20;;;;;;5081095;28;20461;-88
2022/12/28 08:16:28;;;;;;;5.70;4.73;;;9.20;59.60;;;;;;5071241;28;20459;-88
2022/12/28 08:18:56;;;;;;;10.50;6.50;;;9.20;59.40;;;;;;5062697;28;20531;-89
2022/12/28 08:21:25;;;;;;;16.37;9.03;;;9.20;59.40;;;;;;5079052;28;21034;-86
2022/12/28 08:23:54;;;;;;;6.03;4.10;;;9.10;59.60;;;;;;5084522;28;20452;-86
2022/12/28 08:26:23;;;;;;;3.13;2.60;;;9.30;59.50;;;;;;5077889;28;20493;-88
2022/12/28 08:28:53;;;;;;;3.50;2.87;;;9.20;59.60;;;;;;5066294;28;21025;-89
2022/12/28 08:31:21;;;;;;;3.90;2.47;;;9.20;59.70;;;;;;5061762;28;20482;-87
2022/12/28 08:33:49;;;;;;;2.60;2.20;;;9.30;59.60;;;;;;5065991;28;20495;-87
2022/12/28 08:36:17;;;;;;;2.50;1.80;;;9.30;59.20;;;;;;5084235;28;20478;-87
2022/12/28 08:38:45;;;;;;;5.27;3.00;;;9.10;60.40;;;;;;5060270;28;20631;-89
2022/12/28 08:41:16;;;;;;;4.10;3.70;;;9.00;61.10;;;;;;5059014;28;20524;-88
2022/12/28 08:43:44;;;;;;;2.57;2.37;;;9.10;60.70;;;;;;5063809;28;20467;-87
2022/12/28 08:46:13;;;;;;;1.67;1.57;;;9.40;60.10;;;;;;5072503;28;21029;-87
2022/12/28 08:48:40;;;;;;;2.07;1.80;;;9.40;60.10;;;;;;5080264;28;20531;-88
2022/12/28 08:51:09;;;;;;;5.90;2.73;;;9.50;59.70;;;;;;5068149;28;20440;-88
2022/12/28 08:53:36;;;;;;;1.73;1.63;;;9.40;59.80;;;;;;5094864;28;20475;-88
2022/12/28 08:56:05;;;;;;;12.10;5.13;;;9.40;60.30;;;;;;5066113;28;20459;-88
2022/12/28 08:58:34;;;;;;;20.07;13.87;;;9.20;60.20;;;;;;5077817;28;21015;-88
2022/12/28 09:01:08;;;;;;;3.10;2.60;;;9.10;60.60;;;;;;5081011;28;20436;-87
2022/12/28 09:03:36;;;;;;;6.10;4.07;;;9.20;60.60;;;;;;5091414;28;20923;-87
2022/12/28 09:06:05;;;;;;;6.03;4.00;;;9.00;60.60;;;;;;5070344;28;20483;-88
2022/12/28 09:08:32;;;;;;;7.40;6.63;;;9.00;61.10;;;;;;5077024;28;20941;-87
2022/12/28 09:11:00;;;;;;;6.60;4.80;;;8.90;61.40;;;;;;5075031;28;20550;-87
2022/12/28 09:13:27;;;;;;;6.10;2.37;;;8.90;61.30;;;;;;5080588;28;20582;-87
2022/12/28 09:16:01;;;;;;;5.57;3.50;;;9.10;61.30;;;;;;5090740;28;20490;-87
2022/12/28 09:18:28;;;;;;;3.13;2.00;;;9.20;61.00;;;;;;5090627;28;20450;-86
2022/12/28 09:20:55;;;;;;;3.70;2.60;;;9.20;60.90;;;;;;5060385;28;20955;-86
2022/12/28 09:23:23;;;;;;;2.80;2.23;;;9.30;60.50;;;;;;5068034;28;20452;-87
2022/12/28 09:25:50;;;;;;;5.67;3.50;;;9.50;60.90;;;;;;5078705;28;20482;-86
2022/12/28 09:28:17;;;;;;;8.97;7.50;;;9.50;59.80;;;;;;5065146;28;20459;-87
2022/12/28 09:30:44;;;;;;;4.23;2.57;;;9.30;60.80;;;;;;5071849;28;20443;-87
2022/12/28 09:35:58;;;;;;;2.63;2.43;;;9.40;60.90;;;;;;5063839;28;20501;-87
2022/12/28 09:38:25;;;;;;;2.70;1.77;;;9.50;61.90;;;;;;5061364;28;20976;-87
2022/12/28 09:40:52;;;;;;;2.30;2.00;;;9.80;61.00;;;;;;5098242;28;20455;-86
2022/12/28 09:43:20;;;;;;;7.23;1.67;;;9.90;60.10;;;;;;5069208;28;20442;-86
2022/12/28 09:45:48;;;;;;;4.13;1.87;;;9.80;60.70;;;;;;5094012;28;21264;-87
2022/12/28 09:48:22;;;;;;;3.03;2.73;;;9.80;60.90;;;;;;5094069;28;20456;-88
2022/12/28 09:50:50;;;;;;;4.33;1.93;;;9.90;60.60;;;;;;5061869;28;21247;-87
2022/12/28 09:53:25;;;;;;;2.10;1.77;;;10.00;59.90;;;;;;5058924;28;20478;-88
2022/12/28 09:56:05;;;;;;;1.63;1.40;;;10.00;59.00;;;;;;5067684;28;20486;-88
2022/12/28 09:58:36;;;;;;;3.80;2.40;;;10.10;59.20;;;;;;5066438;28;20531;-88
2022/12/28 10:01:09;;;;;;;1.60;1.40;;;10.30;60.00;;;;;;5086514;28;20446;-88
2022/12/28 10:03:39;;;;;;;2.37;1.60;;;10.30;58.50;;;;;;5094921;28;20521;-87
2022/12/28 10:06:13;;;;;;;3.30;1.90;;;10.60;59.30;;;;;;5087333;28;20462;-88
2022/12/28 10:08:44;;;;;;;4.30;2.17;;;10.90;58.40;;;;;;5084084;28;20932;-86
2022/12/28 10:11:16;;;;;;;6.53;1.67;;;11.00;58.00;;;;;;5073387;28;20451;-86
2022/12/28 10:13:44;;;;;;;3.67;3.40;;;11.00;57.80;;;;;;5069273;28;20456;-88
2022/12/28 10:16:17;;;;;;;2.10;1.90;;;11.00;57.40;;;;;;5085706;28;20459;-87
2022/12/28 10:18:47;;;;;;;1.90;1.70;;;11.00;57.40;;;;;;5077491;28;20986;-89
2022/12/28 10:21:15;;;;;;;1.77;1.40;;;10.90;57.70;;;;;;5060873;28;20466;-88
2022/12/28 10:23:44;;;;;;;2.20;1.67;;;10.60;58.20;;;;;;5066560;28;20450;-88
2022/12/28 10:26:15;;;;;;;2.80;1.50;;;10.70;57.90;;;;;;5067694;28;21007;-86
2022/12/28 10:28:47;;;;;;;2.20;1.97;;;10.80;57.90;;;;;;5067652;28;20457;-88
2022/12/28 10:31:16;;;;;;;2.33;2.00;;;10.90;58.20;;;;;;5085833;28;20944;-87
2022/12/28 10:33:52;;;;;;;3.17;2.00;;;11.00;57.60;;;;;;5070016;28;20482;-87
2022/12/28 10:36:19;;;;;;;2.80;1.43;;;10.90;57.90;;;;;;5067240;28;20493;-87
2022/12/28 10:38:51;;;;;;;4.43;2.33;;;10.80;58.50;;;;;;5064580;28;20799;-88
2022/12/28 10:41:20;;;;;;;2.83;2.53;;;10.70;58.30;;;;;;5084640;28;20449;-89
2022/12/28 10:43:49;;;;;;;3.70;1.83;;;10.50;58.50;;;;;;5082341;28;20468;-88
2022/12/28 10:46:18;;;;;;;2.60;2.10;;;10.70;58.70;;;;;;5068229;28;20468;-88
2022/12/28 10:48:49;;;;;;;9.53;2.50;;;11.00;58.60;;;;;;5096620;28;20454;-88
2022/12/28 10:51:20;;;;;;;11.90;4.90;;;10.80;57.90;;;;;;5078773;28;20514;-88
2022/12/28 10:53:50;;;;;;;2.47;1.93;;;11.00;58.10;;;;;;5067148;28;20459;-88
2022/12/28 10:56:22;;;;;;;2.87;1.57;;;11.00;58.40;;;;;;5094326;28;20478;-87
2022/12/28 10:58:51;;;;;;;7.93;3.50;;;11.10;57.20;;;;;;5092876;28;20971;-88
2022/12/28 11:01:24;;;;;;;4.77;2.50;;;11.30;57.90;;;;;;5087252;28;20440;-88
2022/12/28 11:04:04;;;;;;;1.80;1.70;;;11.60;57.20;;;;;;5071863;28;20456;-87
2022/12/28 11:06:34;;;;;;;4.50;2.60;;;11.80;56.80;;;;;;5103299;28;20474;-88
2022/12/28 11:09:13;;;;;;;2.80;2.10;;;11.80;56.70;;;;;;5063430;28;20480;-87
2022/12/28 11:11:41;;;;;;;2.93;1.57;;;11.70;57.00;;;;;;5079783;28;20451;-90
2022/12/28 11:14:15;;;;;;;6.60;2.20;;;11.60;56.80;;;;;;5087303;28;20516;-88
2022/12/28 11:16:43;;;;;;;2.67;1.63;;;11.80;56.80;;;;;;5078196;28;20583;-87
2022/12/28 11:19:11;;;;;;;4.60;2.77;;;11.70;56.20;;;;;;5098556;28;20455;-88
2022/12/28 11:21:41;;;;;;;4.27;2.93;;;11.90;56.80;;;;;;5060965;28;20488;-88
2022/12/28 11:24:13;;;;;;;1.73;1.40;;;12.10;56.20;;;;;;5066702;28;20443;-88
2022/12/28 11:26:44;;;;;;;2.70;1.87;;;12.20;55.50;;;;;;5080536;28;20472;-88
2022/12/28 11:29:13;;;;;;;3.37;1.70;;;12.30;55.80;;;;;;5065599;28;20443;-87
2022/12/28 11:31:47;;;;;;;2.20;1.30;;;12.10;55.50;;;;;;5077492;28;20435;-88
2022/12/28 11:34:19;;;;;;;8.50;4.60;;;12.10;56.00;;;;;;5078763;28;20463;-88
2022/12/28 11:36:48;;;;;;;1.67;1.33;;;12.10;55.90;;;;;;5081509;28;20459;-88
2022/12/28 11:39:41;;;;;;;2.73;1.93;;;11.80;56.20;;;;;;5078333;28;20523;-88
2022/12/28 11:42:09;;;;;;;3.53;2.43;;;11.80;56.20;;;;;;5094437;28;20949;-87
2022/12/28 11:44:53;;;;;;;2.57;1.53;;;11.80;56.40;;;;;;5064043;28;20461;-89
2022/12/28 11:47:25;;;;;;;1.63;1.50;;;11.80;56.40;;;;;;5069812;28;20482;-88
2022/12/28 11:49:53;;;;;;;2.67;2.00;;;11.60;55.80;;;;;;5080336;28;20439;-87
2022/12/28 11:52:46;;;;;;;1.67;1.10;;;11.60;56.40;;;;;;5059992;28;20439;-88
2022/12/28 11:55:46;;;;;;;4.67;1.57;;;11.30;56.40;;;;;;5070962;28;20876;-88
2022/12/28 11:58:53;;;;;;;2.87;2.00;;;11.20;57.20;;;;;;5094555;28;20462;-87
2022/12/28 12:01:43;;;;;;;2.23;1.80;;;11.50;56.20;;;;;;5099573;28;20471;-87
2022/12/28 12:04:38;;;;;;;1.87;1.40;;;11.80;55.90;;;;;;5079013;28;20447;-88
2022/12/28 12:07:41;;;;;;;4.43;1.50;;;12.00;56.00;;;;;;5093760;28;20529;-87
2022/12/28 12:10:40;;;;;;;3.50;1.60;;;11.90;55.00;;;;;;5072684;28;20462;-88
2022/12/28 12:13:41;;;;;;;6.90;6.20;;;11.90;56.10;;;;;;5070307;28;20463;-87
2022/12/28 12:16:18;;;;;;;2.20;2.10;;;12.30;54.90;;;;;;5070909;28;20475;-86
2022/12/28 12:18:50;;;;;;;1.70;1.60;;;12.20;54.80;;;;;;5094141;28;20443;-86
2022/12/28 12:21:29;;;;;;;2.67;1.40;;;12.10;55.00;;;;;;5077246;28;20443;-88
2022/12/28 12:24:03;;;;;;;2.30;1.80;;;12.30;55.60;;;;;;5062805;28;20446;-88
2022/12/28 12:26:36;;;;;;;4.40;2.10;;;12.30;54.90;;;;;;5085774;28;20566;-88
2022/12/28 12:29:13;;;;;;;3.00;2.10;;;12.40;54.20;;;;;;5079863;28;21074;-86
2022/12/28 12:31:44;;;;;;;1.53;1.43;;;12.40;55.10;;;;;;5082675;28;20530;-88
2022/12/28 12:34:16;;;;;;;1.50;1.40;;;12.50;55.00;;;;;;5083459;28;20464;-88
2022/12/28 12:37:19;;;;;;;3.00;1.70;;;12.70;53.60;;;;;;5064081;28;20547;-88
2022/12/28 12:40:13;;;;;;;2.60;1.70;;;12.70;54.30;;;;;;5058617;28;20955;-86
2022/12/28 12:42:52;;;;;;;2.70;1.57;;;12.80;54.20;;;;;;5065559;28;20458;-87
2022/12/28 12:45:29;;;;;;;2.67;1.30;;;13.00;54.50;;;;;;5068715;28;20443;-88
2022/12/28 12:48:09;;;;;;;4.07;1.60;;;13.10;53.90;;;;;;5092558;28;20440;-88
2022/12/28 12:50:57;;;;;;;1.90;1.80;;;13.00;53.70;;;;;;5081405;28;20471;-85
2022/12/28 12:53:45;;;;;;;6.33;1.77;;;13.20;53.10;;;;;;5077660;28;20463;-88
2022/12/28 12:56:33;;;;;;;3.80;3.00;;;13.20;53.60;;;;;;5079260;28;20471;-88
2022/12/28 12:59:16;;;;;;;4.93;3.10;;;13.20;53.30;;;;;;5085025;28;20447;-87
2022/12/28 13:01:54;;;;;;;3.77;2.17;;;13.30;53.20;;;;;;5069351;28;20446;-88
2022/12/28 13:04:24;;;;;;;4.77;2.90;;;13.20;53.50;;;;;;5082749;28;20451;-87
2022/12/28 13:06:56;;;;;;;3.37;3.07;;;13.20;53.80;;;;;;5068525;28;20474;-87
2022/12/28 13:09:26;;;;;;;2.37;1.40;;;13.10;54.20;;;;;;5060545;28;20451;-88
2022/12/28 13:11:54;;;;;;;5.67;4.60;;;13.20;54.60;;;;;;5075335;28;20446;-87
2022/12/28 13:14:23;;;;;;;3.03;2.60;;;13.30;54.30;;;;;;5076536;28;20467;-88
2022/12/28 13:16:53;;;;;;;3.40;3.03;;;13.30;54.00;;;;;;5079126;28;20462;-87
2022/12/28 13:19:23;;;;;;;2.63;1.67;;;13.30;54.80;;;;;;5061540;28;22033;-87
2022/12/28 13:21:51;;;;;;;1.47;1.30;;;13.00;54.70;;;;;;5068772;28;20857;-86
2022/12/28 13:24:23;;;;;;;4.70;3.80;;;13.00;54.70;;;;;;5094168;28;20471;-87
2022/12/28 13:26:51;;;;;;;4.00;3.00;;;13.30;54.30;;;;;;5073439;28;20462;-87
2022/12/28 13:29:20;;;;;;;4.37;3.27;;;13.60;57.10;;;;;;5067479;28;20442;-87
2022/12/28 13:31:49;;;;;;;4.97;2.30;;;13.70;55.40;;;;;;5073873;28;20466;-87
2022/12/28 13:34:21;;;;;;;3.90;2.00;;;13.80;55.00;;;;;;5059563;28;20503;-88
2022/12/28 13:36:52;;;;;;;5.40;1.57;;;13.80;54.20;;;;;;5074566;28;21015;-87